Airfield :
LOGIN :

Register | Disclaimer

   EN    FR    IT 

 










Legend :    VFR   Marginal VFR   IFR   Intensive IFR   Very Intensive IFR
Visi :
Ceiling :
>= 8 km
>= 3000ft
5 to 8 km
1000 to 3000 ft
1500m to 5 km
500 to 1000 ft
800 to 1500m
200 to 500 ft
< 800m
< 200 ft
Symbols :   Thunderstorms  Fog  Heavy snow  Heavy precipitations  Wind > 20 kt
SIGMETs :     Misc.  Thunderstorms  Icing  Turbulence  Mountain Waves  Volcanic Ashes






- Airport Elevation : 352 ft
- IATA code : ARW


LRAR - Arad International

CURRENT METAR :
  • 070930Z 17010KT 150V210 9999 FEW048 28/10 Q1008

EXPIRED METARs :
  • 070900Z 17006KT 140V220 9999 FEW048 27/11 Q1008
  • 070830Z 22010KT 180V240 CAVOK 26/13 Q1008
  • 070800Z 23012KT 190V250 CAVOK 26/13 Q1008
  • 070730Z 22011KT CAVOK 25/15 Q1008
  • 070700Z 20009KT CAVOK 23/16 Q1008

TAF TAF LRAR
Valid from the 07 at 09:00 until the 07 at 18:00 UTC


070800Z 0709/0718 20012KT CAVOK
TEMPO 0709/0714 5000 -TSRA SCT040CB



MET'MAP, your aeronautical weather chart ! - Copyright ORBIFLY December 2007 - Disclaimer

ORBIFLY MET'MAP TEAM :

Programming & Development : Alexandra Zaïnal
Concept & original design : Baudouin d'Aumeries
Assistance for programming : Marc-Olivier Méhu
Technical & hardware support : Manuel Goepfert

Contact : metmap@orbifly.com




SOURCES & CREDITS :

   NOAA